Time;durP1;ratioP1;P1;durP2;ratioP2;P2;SDS_P1;SDS_P2;PMS_P1;PMS_P2;Temp;Humidity;BMP_temperature;BMP_pressure;BME280_temperature;BME280_humidity;BME280_pressure;Samples;Min_cycle;Max_cycle;Signal;HPM_P1;HPM_P2
2022/04/22 00:01:46;;;;;;;6.82;4.85;;;;;;;;;;5102260;28;20507;-68
2022/04/22 00:04:13;;;;;;;4.47;4.07;;;;;;;;;;5102600;28;20274;-68
2022/04/22 00:06:40;;;;;;;5.07;4.63;;;;;;;;;;5102200;28;20247;-68
2022/04/22 00:09:06;;;;;;;4.57;4.28;;;;;;;;;;5102218;28;20219;-68
2022/04/22 00:11:32;;;;;;;5.03;4.63;;;;;;;;;;5102239;28;20200;-68
2022/04/22 00:14:01;;;;;;;4.75;4.35;;;;;;;;;;5102464;28;20226;-68
2022/04/22 00:16:27;;;;;;;4.97;4.68;;;;;;;;;;5101904;28;20219;-68
2022/04/22 00:18:54;;;;;;;4.97;4.57;;;;;;;;;;5102419;28;20533;-68
2022/04/22 00:21:20;;;;;;;5.30;4.75;;;;;;;;;;5102254;28;20195;-68
2022/04/22 00:23:46;;;;;;;4.88;4.57;;;;;;;;;;5102340;28;20233;-68
2022/04/22 00:26:13;;;;;;;4.70;4.40;;;;;;;;;;5102098;28;20231;-68
2022/04/22 00:28:39;;;;;;;5.00;4.63;;;;;;;;;;5102183;28;20216;-68
2022/04/22 00:31:07;;;;;;;5.35;4.95;;;;;;;;;;5102027;28;20204;-68
2022/04/22 00:33:33;;;;;;;5.20;4.80;;;;;;;;;;5101993;28;20195;-68
2022/04/22 00:35:59;;;;;;;5.10;4.70;;;;;;;;;;5102050;28;20195;-68
2022/04/22 00:38:25;;;;;;;5.30;4.90;;;;;;;;;;5102110;28;20192;-68
2022/04/22 00:40:52;;;;;;;5.53;5.05;;;;;;;;;;5102035;28;20203;-68
2022/04/22 00:43:19;;;;;;;5.00;4.70;;;;;;;;;;5102008;28;20195;-68
2022/04/22 00:45:46;;;;;;;5.10;4.70;;;;;;;;;;5101929;28;20196;-68
2022/04/22 00:48:13;;;;;;;5.68;5.20;;;;;;;;;;5101824;28;20299;-68
2022/04/22 00:50:40;;;;;;;5.43;5.03;;;;;;;;;;5102239;28;20557;-68
2022/04/22 00:53:07;;;;;;;5.70;5.10;;;;;;;;;;5101980;28;20196;-68
2022/04/22 00:55:34;;;;;;;6.93;6.10;;;;;;;;;;5101990;28;20195;-68
2022/04/22 00:58:00;;;;;;;5.93;5.43;;;;;;;;;;5102275;28;20192;-68
2022/04/22 01:00:27;;;;;;;6.53;5.80;;;;;;;;;;5105615;28;20196;-68
2022/04/22 01:02:53;;;;;;;7.25;6.00;;;;;;;;;;5105597;28;20195;-68
2022/04/22 01:10:49;;;;;;;6.65;6.15;;;;;;;;;;5105852;28;20190;-68
2022/04/22 01:13:16;;;;;;;5.85;5.35;;;;;;;;;;5105624;28;20577;-68
2022/04/22 01:15:43;;;;;;;6.80;6.20;;;;;;;;;;5105559;28;20420;-68
2022/04/22 01:18:09;;;;;;;6.28;5.78;;;;;;;;;;5105257;28;20195;-68
2022/04/22 01:20:37;;;;;;;6.90;6.30;;;;;;;;;;5105314;28;20242;-68
2022/04/22 01:23:05;;;;;;;6.60;6.07;;;;;;;;;;5105234;28;20196;-68
2022/04/22 01:25:31;;;;;;;6.78;6.07;;;;;;;;;;5105319;28;20199;-68
2022/04/22 01:27:57;;;;;;;7.03;5.90;;;;;;;;;;5104333;28;20216;-68
2022/04/22 01:30:24;;;;;;;7.80;7.10;;;;;;;;;;5105098;28;20195;-68
2022/04/22 01:32:51;;;;;;;7.03;6.32;;;;;;;;;;5105085;28;20208;-68
2022/04/22 01:35:18;;;;;;;6.97;6.38;;;;;;;;;;5105167;28;20200;-68
2022/04/22 01:37:44;;;;;;;7.13;6.53;;;;;;;;;;5104950;28;20245;-68
2022/04/22 01:40:12;;;;;;;7.88;7.03;;;;;;;;;;5105110;28;20385;-68
2022/04/22 01:42:39;;;;;;;7.03;5.80;;;;;;;;;;5104990;28;20199;-68
2022/04/22 01:45:06;;;;;;;8.57;7.57;;;;;;;;;;5104670;28;20195;-68
2022/04/22 01:47:32;;;;;;;8.23;7.40;;;;;;;;;;5104610;28;20234;-68
2022/04/22 01:49:59;;;;;;;7.90;7.10;;;;;;;;;;5104898;28;20384;-68
2022/04/22 01:52:26;;;;;;;8.05;7.22;;;;;;;;;;5104834;28;20227;-68
2022/04/22 01:54:54;;;;;;;8.15;7.45;;;;;;;;;;5104676;28;20371;-68
2022/04/22 01:57:21;;;;;;;9.82;7.25;;;;;;;;;;5104445;28;20504;-68
2022/04/22 01:59:48;;;;;;;8.18;7.38;;;;;;;;;;5104443;28;20245;-68
2022/04/22 02:02:14;;;;;;;8.25;7.45;;;;;;;;;;5104411;28;20211;-68
2022/04/22 02:04:41;;;;;;;9.07;7.68;;;;;;;;;;5104673;28;20605;-69
2022/04/22 02:07:07;;;;;;;7.72;7.03;;;;;;;;;;5104287;28;20196;-68
2022/04/22 02:09:34;;;;;;;7.68;6.95;;;;;;;;;;5103993;28;20545;-68
2022/04/22 02:12:00;;;;;;;10.70;7.82;;;;;;;;;;5104312;28;20195;-68
2022/04/22 02:14:28;;;;;;;9.13;8.23;;;;;;;;;;5104107;28;20499;-68
2022/04/22 02:16:55;;;;;;;7.65;6.90;;;;;;;;;;5104257;28;20196;-68
2022/04/22 02:19:21;;;;;;;8.32;7.47;;;;;;;;;;5104249;28;20218;-68
2022/04/22 02:21:47;;;;;;;8.73;7.90;;;;;;;;;;5104173;28;20200;-68
2022/04/22 02:24:13;;;;;;;7.82;7.13;;;;;;;;;;5104178;28;20240;-68
2022/04/22 02:29:24;;;;;;;8.40;7.57;;;;;;;;;;5104067;28;20275;-68
2022/04/22 02:31:52;;;;;;;10.52;7.95;;;;;;;;;;5104001;28;20202;-68
2022/04/22 02:34:19;;;;;;;8.25;7.43;;;;;;;;;;5104198;28;20201;-68
2022/04/22 02:36:45;;;;;;;9.23;8.32;;;;;;;;;;5103767;28;20196;-68
2022/04/22 02:39:12;;;;;;;8.43;7.63;;;;;;;;;;5103627;28;20187;-68
2022/04/22 02:47:19;;;;;;;8.55;7.65;;;;;;;;;;5061230;28;20197;-68
2022/04/22 02:49:45;;;;;;;9.45;8.30;;;;;;;;;;5093506;28;20234;-68
2022/04/22 02:52:11;;;;;;;8.95;8.05;;;;;;;;;;5103726;28;20279;-68
2022/04/22 02:54:38;;;;;;;9.77;8.70;;;;;;;;;;5103688;28;20397;-68
2022/04/22 02:57:04;;;;;;;9.98;8.98;;;;;;;;;;5103581;28;20417;-68
2022/04/22 02:59:31;;;;;;;9.45;8.45;;;;;;;;;;5103509;28;20192;-68
2022/04/22 03:01:57;;;;;;;9.27;8.38;;;;;;;;;;5103673;28;20432;-67
2022/04/22 03:04:25;;;;;;;9.65;8.70;;;;;;;;;;5103149;28;20203;-68
2022/04/22 03:06:51;;;;;;;9.20;8.40;;;;;;;;;;5103216;28;20535;-68
2022/04/22 03:09:18;;;;;;;8.82;7.95;;;;;;;;;;5103283;28;20535;-68
2022/04/22 03:11:44;;;;;;;9.68;8.32;;;;;;;;;;5103357;28;20196;-68
2022/04/22 03:14:10;;;;;;;9.93;8.93;;;;;;;;;;5103307;28;20204;-68
2022/04/22 03:16:36;;;;;;;9.32;8.38;;;;;;;;;;5102947;28;20196;-69
2022/04/22 03:19:03;;;;;;;9.65;8.75;;;;;;;;;;5103010;28;20191;-68
2022/04/22 03:21:31;;;;;;;10.43;9.32;;;;;;;;;;5102492;28;20202;-68
2022/04/22 03:23:57;;;;;;;10.52;9.40;;;;;;;;;;5103189;28;20368;-68
2022/04/22 03:26:24;;;;;;;11.13;9.63;;;;;;;;;;5102786;28;20207;-68
2022/04/22 03:28:50;;;;;;;11.18;9.75;;;;;;;;;;5103000;28;20274;-68
2022/04/22 03:31:17;;;;;;;11.43;9.27;;;;;;;;;;5102834;28;20214;-68
2022/04/22 03:33:43;;;;;;;12.27;9.90;;;;;;;;;;5102770;28;20230;-68
2022/04/22 03:36:09;;;;;;;14.30;10.27;;;;;;;;;;5102773;28;20233;-67
2022/04/22 03:38:37;;;;;;;11.98;10.50;;;;;;;;;;5102687;28;20195;-68
2022/04/22 03:41:03;;;;;;;13.38;10.77;;;;;;;;;;5102865;28;20495;-68
2022/04/22 03:43:30;;;;;;;11.20;10.05;;;;;;;;;;5102719;28;20529;-68
2022/04/22 03:45:56;;;;;;;14.35;11.38;;;;;;;;;;5102373;28;20284;-67
2022/04/22 03:48:22;;;;;;;13.40;11.52;;;;;;;;;;5102539;28;20289;-68
2022/04/22 03:50:48;;;;;;;13.25;11.00;;;;;;;;;;5103011;28;20386;-68
2022/04/22 03:53:15;;;;;;;12.50;11.18;;;;;;;;;;5102804;28;20191;-68
2022/04/22 03:55:43;;;;;;;13.10;11.70;;;;;;;;;;5102519;28;20203;-68
2022/04/22 03:58:11;;;;;;;13.13;11.52;;;;;;;;;;5102204;28;20200;-67
2022/04/22 04:00:40;;;;;;;14.48;11.80;;;;;;;;;;5102526;28;20200;-68
2022/04/22 04:03:06;;;;;;;15.60;12.48;;;;;;;;;;5102709;28;20478;-68
2022/04/22 04:05:32;;;;;;;15.25;12.75;;;;;;;;;;5102479;28;20261;-68
2022/04/22 04:07:58;;;;;;;22.23;17.35;;;;;;;;;;5102283;28;20195;-69
2022/04/22 04:16:00;;;;;;;21.13;15.30;;;;;;;;;;5101993;28;20198;-68
2022/04/22 04:18:30;;;;;;;17.33;14.63;;;;;;;;;;5102278;28;20370;-68
2022/04/22 04:23:40;;;;;;;18.92;15.25;;;;;;;;;;5102217;28;20383;-68
2022/04/22 04:26:07;;;;;;;18.25;13.38;;;;;;;;;;5102180;28;20260;-68
2022/04/22 04:28:35;;;;;;;14.80;13.25;;;;;;;;;;5102033;28;20215;-69
2022/04/22 04:31:01;;;;;;;18.45;14.25;;;;;;;;;;5102104;28;20200;-69
2022/04/22 04:33:28;;;;;;;17.73;14.20;;;;;;;;;;5105439;28;20218;-69
2022/04/22 04:35:54;;;;;;;15.70;13.18;;;;;;;;;;5106214;28;20195;-69
2022/04/22 04:38:21;;;;;;;14.98;13.10;;;;;;;;;;5105843;28;20206;-68
2022/04/22 04:40:47;;;;;;;17.25;13.88;;;;;;;;;;5105983;28;20196;-69
2022/04/22 04:43:13;;;;;;;17.17;13.65;;;;;;;;;;5106069;28;20234;-69
2022/04/22 04:45:41;;;;;;;18.92;13.85;;;;;;;;;;5105979;28;20237;-68
2022/04/22 04:48:08;;;;;;;18.13;13.93;;;;;;;;;;5106275;28;20211;-69
2022/04/22 04:50:34;;;;;;;17.67;14.05;;;;;;;;;;5105837;28;20216;-69
2022/04/22 04:53:00;;;;;;;17.67;13.55;;;;;;;;;;5105842;28;20436;-68
2022/04/22 04:55:27;;;;;;;17.75;14.20;;;;;;;;;;5105704;28;20233;-68
2022/04/22 04:57:53;;;;;;;17.75;14.05;;;;;;;;;;5105731;28;20467;-69
2022/04/22 05:00:20;;;;;;;18.17;14.20;;;;;;;;;;5105379;28;20383;-69
2022/04/22 05:02:48;;;;;;;18.23;14.93;;;;;;;;;;5105121;28;20196;-69
2022/04/22 05:05:14;;;;;;;19.10;15.63;;;;;;;;;;5104710;28;20231;-68
2022/04/22 05:07:48;;;;;;;19.73;16.08;;;;;;;;;;5104698;28;20525;-68
2022/04/22 05:10:15;;;;;;;20.92;16.35;;;;;;;;;;5104876;28;20216;-68
2022/04/22 05:12:41;;;;;;;21.55;16.35;;;;;;;;;;5104889;28;20195;-69
2022/04/22 05:15:08;;;;;;;19.35;15.10;;;;;;;;;;5103626;28;20184;-69
2022/04/22 05:17:35;;;;;;;18.55;14.70;;;;;;;;;;5104418;28;20202;-68
2022/04/22 05:20:03;;;;;;;18.52;14.93;;;;;;;;;;5104685;28;20199;-69
2022/04/22 05:22:29;;;;;;;19.08;14.70;;;;;;;;;;5105090;28;20376;-69
2022/04/22 05:24:55;;;;;;;15.50;13.77;;;;;;;;;;5105057;28;20495;-68
2022/04/22 05:27:22;;;;;;;19.40;15.57;;;;;;;;;;5104475;28;20391;-68
2022/04/22 05:32:37;;;;;;;19.38;15.05;;;;;;;;;;5065581;28;20260;-68
2022/04/22 05:35:05;;;;;;;17.60;15.02;;;;;;;;;;5104465;28;20241;-68
2022/04/22 05:37:42;;;;;;;19.67;14.30;;;;;;;;;;5104364;28;20242;-68
2022/04/22 05:40:09;;;;;;;17.80;14.80;;;;;;;;;;5104432;28;20401;-68
2022/04/22 05:42:38;;;;;;;21.65;14.77;;;;;;;;;;5104695;28;20200;-68
2022/04/22 05:45:04;;;;;;;21.50;16.88;;;;;;;;;;5103664;28;20202;-68
2022/04/22 05:47:31;;;;;;;21.08;16.50;;;;;;;;;;5104122;28;20234;-68
2022/04/22 05:49:57;;;;;;;26.23;18.77;;;;;;;;;;5104115;28;20258;-68
2022/04/22 05:52:24;;;;;;;20.23;15.48;;;;;;;;;;5104223;28;20196;-68
2022/04/22 05:54:51;;;;;;;22.48;18.00;;;;;;;;;;5104009;28;20196;-68
2022/04/22 05:57:17;;;;;;;23.02;18.52;;;;;;;;;;5101344;28;20195;-61
2022/04/22 05:59:43;;;;;;;25.48;17.92;;;;;;;;;;5083323;28;20203;-61
2022/04/22 06:02:10;;;;;;;24.48;18.60;;;;;;;;;;5088658;28;20477;-61
2022/04/22 06:04:36;;;;;;;23.45;18.98;;;;;;;;;;5096127;28;20214;-61
2022/04/22 06:07:02;;;;;;;23.27;18.95;;;;;;;;;;5098138;28;20207;-59
2022/04/22 06:12:13;;;;;;;23.90;19.13;;;;;;;;;;5091424;28;20214;-59
2022/04/22 06:14:39;;;;;;;23.90;19.27;;;;;;;;;;5097954;28;20208;-62
2022/04/22 06:17:06;;;;;;;25.90;19.77;;;;;;;;;;5096926;28;20507;-61
2022/04/22 06:19:32;;;;;;;23.90;19.35;;;;;;;;;;5096406;28;20253;-60
2022/04/22 06:21:58;;;;;;;24.70;19.33;;;;;;;;;;5098036;28;20227;-60
2022/04/22 06:24:25;;;;;;;24.05;19.52;;;;;;;;;;5097996;28;20214;-61
2022/04/22 06:26:52;;;;;;;25.45;19.27;;;;;;;;;;5097995;28;20554;-60
2022/04/22 06:29:19;;;;;;;23.70;19.83;;;;;;;;;;5097723;28;20235;-60
2022/04/22 06:31:45;;;;;;;24.60;19.67;;;;;;;;;;5098160;28;20208;-60
2022/04/22 06:34:12;;;;;;;23.88;19.70;;;;;;;;;;5098816;28;20245;-61
2022/04/22 06:36:38;;;;;;;24.33;20.60;;;;;;;;;;5098019;28;20379;-60
2022/04/22 06:39:05;;;;;;;26.50;19.65;;;;;;;;;;5097881;28;20542;-61
2022/04/22 06:47:07;;;;;;;23.92;19.60;;;;;;;;;;5097734;28;20257;-60
2022/04/22 06:49:34;;;;;;;24.42;18.63;;;;;;;;;;5097049;28;20227;-61
2022/04/22 06:52:01;;;;;;;22.98;19.27;;;;;;;;;;5097806;28;20333;-61
2022/04/22 06:54:27;;;;;;;25.70;19.48;;;;;;;;;;5097573;28;20200;-60
2022/04/22 06:56:54;;;;;;;23.77;19.30;;;;;;;;;;5096436;28;20208;-60
2022/04/22 06:59:23;;;;;;;22.83;19.20;;;;;;;;;;5097120;28;20232;-60
2022/04/22 07:01:49;;;;;;;22.58;19.00;;;;;;;;;;5097212;28;20226;-59
2022/04/22 07:04:16;;;;;;;23.95;18.95;;;;;;;;;;5097325;28;20436;-59
2022/04/22 07:06:42;;;;;;;23.67;18.92;;;;;;;;;;5096845;28;20250;-60
2022/04/22 07:09:10;;;;;;;24.75;19.10;;;;;;;;;;5096928;28;20214;-59
2022/04/22 07:11:37;;;;;;;23.95;18.88;;;;;;;;;;5097114;28;20212;-60
2022/04/22 07:14:04;;;;;;;21.48;18.40;;;;;;;;;;5097315;28;20214;-59
2022/04/22 07:16:32;;;;;;;27.48;18.73;;;;;;;;;;5096890;28;20439;-60
2022/04/22 07:18:59;;;;;;;25.05;19.27;;;;;;;;;;5096745;28;20207;-60
2022/04/22 07:21:26;;;;;;;25.25;19.27;;;;;;;;;;5096723;28;20206;-60
2022/04/22 07:23:53;;;;;;;22.38;18.92;;;;;;;;;;5096862;28;20230;-60
2022/04/22 07:26:20;;;;;;;24.23;18.50;;;;;;;;;;5095458;28;20213;-60
2022/04/22 07:28:46;;;;;;;20.65;17.83;;;;;;;;;;5076351;28;20254;-59
2022/04/22 07:31:14;;;;;;;23.60;18.90;;;;;;;;;;5076283;28;20235;-59
2022/04/22 07:33:42;;;;;;;21.08;17.77;;;;;;;;;;5076596;28;20212;-59
2022/04/22 07:36:09;;;;;;;21.35;18.05;;;;;;;;;;5076224;28;20207;-59
2022/04/22 07:38:35;;;;;;;21.33;17.75;;;;;;;;;;5076404;28;20208;-59
2022/04/22 07:41:01;;;;;;;21.65;16.77;;;;;;;;;;5076179;28;20451;-58
2022/04/22 07:49:12;;;;;;;24.20;16.67;;;;;;;;;;5053143;28;20276;-59
2022/04/22 07:51:39;;;;;;;21.45;16.63;;;;;;;;;;5053403;28;20247;-59
2022/04/22 07:54:06;;;;;;;22.02;17.45;;;;;;;;;;5063356;28;20216;-59
2022/04/22 07:56:32;;;;;;;21.23;17.42;;;;;;;;;;5081169;28;20336;-59
2022/04/22 07:58:58;;;;;;;22.00;16.67;;;;;;;;;;5097593;28;20234;-61
2022/04/22 08:01:25;;;;;;;20.70;16.88;;;;;;;;;;5096400;28;20211;-60
2022/04/22 08:03:53;;;;;;;20.65;16.73;;;;;;;;;;5096962;28;20463;-61
2022/04/22 08:06:21;;;;;;;18.88;16.38;;;;;;;;;;5096126;28;20485;-60
2022/04/22 08:08:47;;;;;;;18.77;16.15;;;;;;;;;;5096508;28;20446;-61
2022/04/22 08:11:13;;;;;;;21.20;16.10;;;;;;;;;;5096285;28;20269;-60
2022/04/22 08:13:41;;;;;;;17.17;15.25;;;;;;;;;;5096774;28;20204;-61
2022/04/22 08:16:07;;;;;;;16.90;15.10;;;;;;;;;;5096437;28;20214;-61
2022/04/22 08:18:34;;;;;;;21.00;15.85;;;;;;;;;;5096344;28;20208;-61
2022/04/22 08:21:00;;;;;;;20.02;15.48;;;;;;;;;;5096233;28;20207;-61
2022/04/22 08:23:27;;;;;;;19.98;16.30;;;;;;;;;;5096548;28;20211;-60
2022/04/22 08:25:54;;;;;;;16.38;14.68;;;;;;;;;;5096345;28;20214;-60
2022/04/22 08:28:20;;;;;;;20.38;15.57;;;;;;;;;;5096264;28;20208;-61
2022/04/22 08:30:46;;;;;;;17.13;15.20;;;;;;;;;;5096489;28;20232;-62
2022/04/22 08:33:13;;;;;;;17.40;15.60;;;;;;;;;;5096309;28;20207;-60
2022/04/22 08:35:39;;;;;;;20.77;15.27;;;;;;;;;;5096411;28;20234;-60
2022/04/22 08:38:06;;;;;;;18.75;14.77;;;;;;;;;;5096062;28;20214;-60
2022/04/22 08:40:35;;;;;;;14.85;13.38;;;;;;;;;;5096155;28;20456;-61
2022/04/22 08:43:03;;;;;;;15.70;14.00;;;;;;;;;;5095255;28;20215;-60
2022/04/22 08:45:32;;;;;;;16.08;13.90;;;;;;;;;;5096429;28;20210;-61
2022/04/22 08:50:41;;;;;;;15.27;13.20;;;;;;;;;;5072582;28;20276;-58
2022/04/22 08:53:08;;;;;;;14.52;13.07;;;;;;;;;;5096292;28;20215;-58
2022/04/22 08:55:36;;;;;;;14.95;12.75;;;;;;;;;;5096050;28;20208;-59
2022/04/22 08:58:05;;;;;;;16.10;14.50;;;;;;;;;;5095869;28;20214;-59
2022/04/22 09:00:33;;;;;;;16.40;12.57;;;;;;;;;;5095679;28;20539;-58
2022/04/22 09:03:00;;;;;;;19.70;13.15;;;;;;;;;;5096064;28;20578;-59
2022/04/22 09:05:26;;;;;;;13.23;11.75;;;;;;;;;;5095983;28;20285;-60
2022/04/22 09:07:53;;;;;;;14.80;12.23;;;;;;;;;;5095823;28;20219;-59
2022/04/22 09:10:19;;;;;;;13.07;11.30;;;;;;;;;;5095589;28;20596;-58
2022/04/22 09:12:52;;;;;;;15.52;12.73;;;;;;;;;;5096195;28;20215;-59
2022/04/22 09:15:18;;;;;;;16.92;12.75;;;;;;;;;;5095976;28;20207;-59
2022/04/22 09:17:45;;;;;;;12.82;11.02;;;;;;;;;;5095687;28;20235;-59
2022/04/22 09:20:13;;;;;;;13.60;12.13;;;;;;;;;;5098196;28;20204;-59
2022/04/22 09:22:40;;;;;;;12.80;10.85;;;;;;;;;;5099458;28;20553;-59
2022/04/22 09:25:06;;;;;;;12.30;11.10;;;;;;;;;;5099844;28;20536;-59
2022/04/22 09:27:34;;;;;;;12.68;10.93;;;;;;;;;;5099317;28;20249;-59
2022/04/22 09:30:03;;;;;;;11.85;10.70;;;;;;;;;;5098766;28;20504;-59
2022/04/22 09:32:30;;;;;;;13.98;10.18;;;;;;;;;;5099488;28;20527;-60
2022/04/22 09:34:57;;;;;;;11.23;10.13;;;;;;;;;;5099535;28;20283;-59
2022/04/22 09:42:52;;;;;;;10.93;9.82;;;;;;;;;;5099283;28;20281;-60
2022/04/22 09:45:20;;;;;;;10.02;9.00;;;;;;;;;;5099431;28;20208;-60
2022/04/22 09:47:56;;;;;;;9.90;9.00;;;;;;;;;;5098923;28;20212;-60
2022/04/22 09:50:38;;;;;;;9.68;8.80;;;;;;;;;;5098828;28;20223;-60
2022/04/22 09:53:04;;;;;;;9.15;8.45;;;;;;;;;;5099312;28;20208;-59
2022/04/22 09:55:31;;;;;;;13.00;10.32;;;;;;;;;;5099235;28;20215;-60
2022/04/22 09:57:58;;;;;;;13.35;11.90;;;;;;;;;;5098789;28;20258;-61
2022/04/22 10:00:26;;;;;;;12.30;10.95;;;;;;;;;;5098119;28;20210;-61
2022/04/22 10:02:53;;;;;;;12.50;11.30;;;;;;;;;;5098826;28;20245;-60
2022/04/22 10:05:20;;;;;;;11.80;10.60;;;;;;;;;;5098715;28;20223;-61
2022/04/22 10:07:50;;;;;;;12.65;10.60;;;;;;;;;;5098588;28;20208;-61
2022/04/22 10:10:16;;;;;;;16.88;13.95;;;;;;;;;;5098532;28;20215;-61
2022/04/22 10:12:43;;;;;;;11.50;9.98;;;;;;;;;;5098724;28;20265;-60
2022/04/22 10:15:10;;;;;;;12.38;10.73;;;;;;;;;;5098719;28;20384;-59
2022/04/22 10:17:38;;;;;;;12.70;10.68;;;;;;;;;;5098329;28;20437;-61
2022/04/22 10:20:05;;;;;;;17.58;14.38;;;;;;;;;;5098095;28;20211;-61
2022/04/22 10:22:33;;;;;;;13.15;10.73;;;;;;;;;;5098591;28;20207;-60
2022/04/22 10:25:02;;;;;;;10.85;9.85;;;;;;;;;;5098568;28;20418;-60
2022/04/22 10:27:31;;;;;;;10.27;9.23;;;;;;;;;;5097729;28;20208;-61
2022/04/22 10:29:59;;;;;;;10.48;9.43;;;;;;;;;;5097675;28;20211;-60
2022/04/22 10:32:25;;;;;;;16.20;10.38;;;;;;;;;;5098306;28;20249;-60
2022/04/22 10:34:57;;;;;;;11.02;8.90;;;;;;;;;;5098752;28;20277;-61
2022/04/22 10:37:25;;;;;;;16.38;9.25;;;;;;;;;;5098289;28;20212;-61
2022/04/22 10:39:52;;;;;;;10.57;8.20;;;;;;;;;;5098242;28;20235;-61
2022/04/22 10:42:18;;;;;;;13.48;8.50;;;;;;;;;;5098466;28;20246;-61
2022/04/22 10:47:38;;;;;;;10.50;9.60;;;;;;;;;;5097616;28;20407;-61
2022/04/22 10:50:22;;;;;;;12.77;8.20;;;;;;;;;;5097409;28;20215;-60
2022/04/22 10:52:55;;;;;;;13.18;9.45;;;;;;;;;;5098645;28;20212;-60
2022/04/22 10:55:22;;;;;;;11.50;8.68;;;;;;;;;;5097862;28;20207;-60
2022/04/22 10:57:51;;;;;;;13.52;7.90;;;;;;;;;;5097937;28;20208;-60
2022/04/22 11:00:29;;;;;;;7.70;7.00;;;;;;;;;;5097883;28;20207;-60
2022/04/22 11:03:03;;;;;;;8.68;7.28;;;;;;;;;;5097966;28;20230;-60
2022/04/22 11:05:35;;;;;;;6.90;6.38;;;;;;;;;;5097918;28;20223;-60
2022/04/22 11:08:02;;;;;;;7.68;6.88;;;;;;;;;;5097666;28;20216;-59
2022/04/22 11:10:29;;;;;;;8.77;6.75;;;;;;;;;;5097407;28;20220;-59
2022/04/22 11:12:56;;;;;;;9.10;8.20;;;;;;;;;;5097859;28;20324;-62
2022/04/22 11:15:41;;;;;;;9.40;8.60;;;;;;;;;;5097759;28;20279;-59
2022/04/22 11:18:08;;;;;;;10.73;8.65;;;;;;;;;;5097384;28;20212;-61
2022/04/22 11:20:37;;;;;;;9.35;8.18;;;;;;;;;;5097383;28;20204;-59
2022/04/22 11:23:05;;;;;;;9.18;7.45;;;;;;;;;;5097490;28;20208;-61
2022/04/22 11:25:31;;;;;;;8.43;7.53;;;;;;;;;;5097279;28;20286;-59
2022/04/22 11:27:58;;;;;;;7.82;7.22;;;;;;;;;;5097265;28;20219;-59
2022/04/22 11:30:26;;;;;;;10.43;7.07;;;;;;;;;;5096865;28;20527;-59
2022/04/22 11:32:53;;;;;;;11.00;7.30;;;;;;;;;;5097150;28;20207;-59
2022/04/22 11:35:20;;;;;;;8.43;7.63;;;;;;;;;;5096938;28;20233;-59
2022/04/22 11:37:57;;;;;;;8.90;8.10;;;;;;;;;;5097185;28;20231;-59
2022/04/22 11:40:24;;;;;;;9.00;8.10;;;;;;;;;;5096942;28;20215;-60
2022/04/22 11:42:54;;;;;;;12.60;7.95;;;;;;;;;;5096433;28;20199;-61
2022/04/22 11:45:20;;;;;;;9.18;7.03;;;;;;;;;;5096530;28;20207;-60
2022/04/22 11:47:47;;;;;;;8.90;7.90;;;;;;;;;;5096614;28;20256;-60
2022/04/22 11:50:17;;;;;;;8.85;8.10;;;;;;;;;;5096428;28;20230;-60
2022/04/22 11:52:44;;;;;;;8.07;7.43;;;;;;;;;;5097010;28;20275;-61
2022/04/22 11:55:12;;;;;;;7.35;6.57;;;;;;;;;;5096971;28;20208;-59
2022/04/22 11:57:39;;;;;;;10.45;8.75;;;;;;;;;;5096306;28;20303;-59
2022/04/22 12:05:36;;;;;;;7.10;6.40;;;;;;;;;;5096787;28;20420;-61
2022/04/22 12:08:04;;;;;;;7.65;6.80;;;;;;;;;;5096412;28;20238;-60
2022/04/22 12:10:33;;;;;;;8.63;6.18;;;;;;;;;;5096497;28;20200;-60
2022/04/22 12:13:01;;;;;;;7.63;6.90;;;;;;;;;;5090983;28;20212;-59
2022/04/22 12:15:27;;;;;;;6.43;5.82;;;;;;;;;;5091043;28;20203;-60
2022/04/22 12:17:54;;;;;;;8.57;7.78;;;;;;;;;;5078567;28;20250;-60
2022/04/22 12:20:20;;;;;;;7.97;7.13;;;;;;;;;;5075811;28;20250;-60
2022/04/22 12:22:48;;;;;;;9.18;6.90;;;;;;;;;;5076004;28;20212;-60
2022/04/22 12:25:16;;;;;;;6.97;6.38;;;;;;;;;;5076088;28;20204;-60
2022/04/22 12:27:44;;;;;;;6.95;6.07;;;;;;;;;;5075639;28;20243;-60
2022/04/22 12:30:11;;;;;;;8.60;6.68;;;;;;;;;;5075767;28;20254;-60
2022/04/22 12:32:38;;;;;;;8.25;7.00;;;;;;;;;;5076113;28;20519;-60
2022/04/22 12:35:14;;;;;;;6.82;6.32;;;;;;;;;;5076089;28;20212;-60
2022/04/22 12:37:44;;;;;;;7.32;6.72;;;;;;;;;;5075718;28;20506;-60
2022/04/22 12:40:11;;;;;;;8.18;7.30;;;;;;;;;;5075373;28;20406;-59
2022/04/22 12:42:39;;;;;;;8.95;8.10;;;;;;;;;;5075567;28;20205;-61
2022/04/22 12:53:28;;;;;;;6.82;6.22;;;;;;;;;;5097581;28;20400;-60
2022/04/22 12:55:58;;;;;;;6.95;6.53;;;;;;;;;;5099448;28;20216;-60
2022/04/22 12:58:25;;;;;;;7.80;6.97;;;;;;;;;;5079105;28;20230;-60
2022/04/22 13:00:53;;;;;;;7.07;6.38;;;;;;;;;;5078981;28;20224;-60
2022/04/22 13:03:19;;;;;;;6.25;5.75;;;;;;;;;;5079642;28;20208;-60
2022/04/22 13:05:45;;;;;;;6.30;5.90;;;;;;;;;;5078618;28;20278;-60
2022/04/22 13:08:13;;;;;;;6.40;5.80;;;;;;;;;;5096222;28;20277;-60
2022/04/22 13:10:40;;;;;;;7.20;5.93;;;;;;;;;;5098636;28;20204;-59
2022/04/22 13:13:06;;;;;;;5.70;5.32;;;;;;;;;;5099047;28;20234;-60
2022/04/22 13:15:32;;;;;;;6.53;6.03;;;;;;;;;;5099136;28;20449;-61
2022/04/22 13:18:00;;;;;;;6.60;6.05;;;;;;;;;;5098537;28;20230;-60
2022/04/22 13:20:26;;;;;;;5.95;5.47;;;;;;;;;;5098602;28;20207;-60
2022/04/22 13:22:52;;;;;;;5.53;4.95;;;;;;;;;;5098832;28;20214;-60
2022/04/22 13:25:21;;;;;;;4.85;4.45;;;;;;;;;;5100003;28;20203;-60
2022/04/22 13:27:47;;;;;;;5.50;5.00;;;;;;;;;;5099106;28;20211;-60
2022/04/22 13:30:14;;;;;;;13.23;5.28;;;;;;;;;;5099203;28;20212;-60
2022/04/22 13:32:41;;;;;;;5.55;5.15;;;;;;;;;;5099060;28;20227;-60
2022/04/22 13:35:10;;;;;;;8.05;5.53;;;;;;;;;;5098956;28;20208;-60
2022/04/22 13:37:36;;;;;;;6.82;6.18;;;;;;;;;;5098497;28;20526;-60
2022/04/22 13:40:03;;;;;;;6.25;4.90;;;;;;;;;;5098431;28;20546;-60
2022/04/22 13:42:29;;;;;;;6.47;5.47;;;;;;;;;;5098714;28;20233;-60
2022/04/22 13:53:09;;;;;;;8.75;6.55;;;;;;;;;;5098874;28;20559;-61
2022/04/22 13:55:36;;;;;;;5.60;5.10;;;;;;;;;;5098428;28;20212;-60
2022/04/22 13:58:02;;;;;;;5.95;5.45;;;;;;;;;;5097380;28;20315;-60
2022/04/22 14:00:28;;;;;;;6.45;5.85;;;;;;;;;;5097973;28;20246;-61
2022/04/22 14:02:55;;;;;;;7.05;6.45;;;;;;;;;;5098103;28;20207;-59
2022/04/22 14:05:22;;;;;;;7.32;6.63;;;;;;;;;;5098116;28;20228;-61
2022/04/22 14:07:50;;;;;;;5.85;5.45;;;;;;;;;;5098389;28;20460;-59
2022/04/22 14:10:16;;;;;;;6.00;5.60;;;;;;;;;;5098411;28;20253;-60
2022/04/22 14:12:43;;;;;;;6.40;5.88;;;;;;;;;;5098577;28;20266;-61
2022/04/22 14:15:09;;;;;;;6.13;5.63;;;;;;;;;;5098473;28;20207;-62
2022/04/22 14:17:36;;;;;;;9.57;6.80;;;;;;;;;;5098872;28;20253;-62
2022/04/22 14:20:03;;;;;;;6.90;6.30;;;;;;;;;;5098348;28;20211;-61
2022/04/22 14:22:30;;;;;;;7.38;6.45;;;;;;;;;;5098641;28;20381;-61
2022/04/22 14:24:57;;;;;;;7.97;6.78;;;;;;;;;;5098337;28;20220;-62
2022/04/22 14:27:24;;;;;;;7.22;5.45;;;;;;;;;;5098349;28;20280;-62
2022/04/22 14:29:50;;;;;;;5.50;4.82;;;;;;;;;;5097649;28;20208;-62
2022/04/22 14:32:17;;;;;;;7.07;6.30;;;;;;;;;;5098109;28;20231;-60
2022/04/22 14:34:44;;;;;;;6.53;5.95;;;;;;;;;;5098068;28;20211;-60
2022/04/22 14:37:10;;;;;;;7.47;6.05;;;;;;;;;;5097626;28;20568;-60
2022/04/22 14:39:36;;;;;;;8.27;6.63;;;;;;;;;;5097620;28;20254;-60
2022/04/22 14:42:04;;;;;;;6.72;5.55;;;;;;;;;;5098065;28;20203;-59
2022/04/22 14:44:31;;;;;;;8.13;7.30;;;;;;;;;;5098184;28;20218;-60
2022/04/22 14:46:57;;;;;;;7.28;6.68;;;;;;;;;;5097872;28;20523;-59
2022/04/22 14:49:24;;;;;;;6.30;5.45;;;;;;;;;;5097540;28;20211;-60
2022/04/22 14:51:52;;;;;;;5.35;4.95;;;;;;;;;;5097742;28;20447;-61
2022/04/22 14:54:18;;;;;;;8.75;5.30;;;;;;;;;;5097983;28;20208;-60
2022/04/22 14:56:45;;;;;;;5.88;5.47;;;;;;;;;;5097262;28;20523;-61
2022/04/22 14:59:13;;;;;;;5.32;4.97;;;;;;;;;;5097139;28;20223;-60
2022/04/22 15:01:39;;;;;;;5.57;5.10;;;;;;;;;;5088099;28;20212;-60
2022/04/22 15:04:06;;;;;;;6.50;5.95;;;;;;;;;;5096597;28;20211;-60
2022/04/22 15:06:33;;;;;;;5.20;4.70;;;;;;;;;;5097159;28;20295;-60
2022/04/22 15:09:00;;;;;;;5.50;4.95;;;;;;;;;;5097677;28;20235;-60
2022/04/22 15:11:26;;;;;;;5.05;4.75;;;;;;;;;;5097367;28;20207;-60
2022/04/22 15:13:53;;;;;;;5.47;5.07;;;;;;;;;;5097368;28;20212;-60
2022/04/22 15:16:23;;;;;;;6.00;5.45;;;;;;;;;;5096711;28;20253;-60
2022/04/22 15:24:17;;;;;;;6.40;5.80;;;;;;;;;;5097355;28;20202;-60
2022/04/22 15:26:44;;;;;;;6.22;4.72;;;;;;;;;;5097092;28;20211;-60
2022/04/22 15:29:12;;;;;;;4.88;4.57;;;;;;;;;;5092368;28;20408;-60
2022/04/22 15:31:39;;;;;;;5.28;4.90;;;;;;;;;;5087354;28;20216;-60
2022/04/22 15:34:06;;;;;;;5.03;4.63;;;;;;;;;;5088094;28;20211;-60
2022/04/22 15:36:32;;;;;;;4.55;4.25;;;;;;;;;;5087074;28;20446;-59
2022/04/22 15:38:59;;;;;;;5.32;4.30;;;;;;;;;;5088434;28;20204;-60
2022/04/22 15:41:29;;;;;;;4.70;4.30;;;;;;;;;;5096794;28;20208;-60
2022/04/22 15:43:56;;;;;;;7.78;4.80;;;;;;;;;;5096936;28;20303;-60
2022/04/22 15:46:22;;;;;;;4.90;4.60;;;;;;;;;;5096692;28;20235;-60
2022/04/22 15:48:50;;;;;;;4.90;4.60;;;;;;;;;;5096702;28;20211;-60